Stella, MO (64867)

6:42 PM CST on February 14, 2016 (GMT -0600)
Farm Road 2100 | | Change Station
CLOSE
Current Station
Personal Weather Station
Location: Wheaton, MO
Elevation: 1335 ft
Nearby Weather Stations

Elev 1335 ft 36.79 °N, 94.07 °W | Updated 0 second ago

Mostly Cloudy
Mostly Cloudy
37.7 °F
Feels Like 38 °F
N
2.0
Wind Variable Wind from South
Gusts 4.0 mph

Today
High -- | Low -- °F
--% Chance of Precip.
Yesterday
High -- | Low -- °F
Precip. -- in
Pressure 29.90 in
Visibility 7.0 miles
Clouds Scattered Clouds 800 ft
Windchill 38 °F
Dew Point 35 °F
Humidity 91%
Rainfall 0.02 in
Snow Depth Not available.
7:06 AM 5:55 PM
Waxing Crescent, 47% visible
METAR KHFJ 150015Z AUTO 18003KT 7SM SCT008 03/02 A2990 RMK AO2
Pressure 29.90 in
Visibility 7.0 miles
Clouds Scattered Clouds 800 ft
Windchill 38 °F
Dew Point 35 °F
Humidity 91%
Rainfall 0.02 in
Snow Depth Not available.
7:06 AM 5:55 PM
Waxing Crescent, 47% visible
METAR KHFJ 150015Z AUTO 18003KT 7SM SCT008 03/02 A2990 RMK AO2

10-Day Weather Forecast

Almanac

Astronomy

Feb. 14, 2016 Rise Set
Actual Time
Civil Twilight
Nautical Twilight
Astronomical Twilight
Moon
Length of Visible Light
Length of Day
Tomorrow will be .
, % of the Moon is Illuminated

Today's Extremes

State Highs State Lows

Community

WunderPhotos

Upload Photos

1,892,952 photos uploaded!

WunderBlog® & News

Nearby

Air Quality

  Air Quality AQ Index Pollutant
Not available.

Snow Depth

Station Depth Elevation

Earthquake Activity

City Distance Mag. Time & Date
Minimum magnitude displayed is 2.5.

Coastal Water Temperatures

Place Temperature

Stations

Nearby Weather Stations

Station Location Temp. Windchill Dew Point Humidity Wind Precip. Elev Updated Type
                   

Watches & Warnings

There are currently no watches in effect.